Smyrna, South Carolina
Current Conditions -  °F | °C
As of 12:15 PM on Saturday 25 Oct 2014 (Local Time) from KEHO Reporting Station
Clear Clear  
Wind Chill: 66°   Ceiling: Unl
Heat Index: 66°   Visibility: 10mi
Dew Point: 35°   Wind: 0mph
Humidity: 33%   Direction: NA
Pressure: 30.04"   Gusts: NA
Location:  35.04°N, 81.41°W
Report Text: KEHO 251615Z AUTO 00000KT 10SM CLR 19/02 A3004 RMK AO2 T01870019
Loading
Personal Weather Stations






























Interactive Weather Map
Tropical Storm Tracking
New forecast layout! Learn more

10-Day Weather Forecast

Advertisements
Track Severe Weather on mobile